createdAt,value
2022-12-22T00:00:32.061Z,83.46
2022-12-22T00:03:43.358Z,83.35
2022-12-22T00:06:35.111Z,83.33
2022-12-22T00:09:26.872Z,83.31
2022-12-22T00:12:18.831Z,83.56
2022-12-22T00:15:10.420Z,83.62
2022-12-22T00:18:02.578Z,83.66
2022-12-22T00:20:54.151Z,83.63
2022-12-22T00:23:45.703Z,83.47
2022-12-22T00:26:38.429Z,83.55
2022-12-22T00:29:34.509Z,83.55
2022-12-22T00:32:32.026Z,83.54
2022-12-22T00:35:23.537Z,83.67
2022-12-22T00:38:14.592Z,83.70
2022-12-22T00:41:06.199Z,83.53
2022-12-22T00:43:58.262Z,83.43
2022-12-22T00:46:51.261Z,83.47
2022-12-22T00:49:45.397Z,83.39
2022-12-22T00:52:40.348Z,83.43
2022-12-22T00:55:37.154Z,83.39
2022-12-22T00:58:35.427Z,83.37
2022-12-22T01:01:28.420Z,83.44
2022-12-22T01:04:19.742Z,83.39
2022-12-22T01:07:10.749Z,83.66
2022-12-22T01:10:05.359Z,83.77
2022-12-22T01:12:58.499Z,83.69
2022-12-22T01:15:51.095Z,83.77
2022-12-22T01:18:42.283Z,83.89
2022-12-22T01:21:34.197Z,83.98
2022-12-22T01:24:29.914Z,83.91
2022-12-22T01:27:21.349Z,84.02
2022-12-22T01:30:12.993Z,83.99
2022-12-22T01:33:04.591Z,83.94
2022-12-22T01:35:55.896Z,84.07
2022-12-22T01:38:47.789Z,84.20
2022-12-22T01:41:41.629Z,84.36
2022-12-22T01:44:37.231Z,84.51
2022-12-22T01:47:54.908Z,84.45
2022-12-22T01:50:53.392Z,84.53
2022-12-22T01:53:48.189Z,84.62
2022-12-22T01:56:40.168Z,84.55
2022-12-22T01:59:31.236Z,84.63
2022-12-22T02:02:24.342Z,84.89
2022-12-22T02:05:19.139Z,84.89
2022-12-22T02:08:20.833Z,84.95
2022-12-22T02:11:32.849Z,84.89
2022-12-22T02:14:37.214Z,85.09
2022-12-22T02:17:37.140Z,85.28
2022-12-22T02:20:59.486Z,85.21
2022-12-22T02:24:19.785Z,85.21
2022-12-22T02:27:14.077Z,85.46
2022-12-22T02:30:10.500Z,85.50
2022-12-22T02:33:09.550Z,85.63
2022-12-22T02:36:08.838Z,85.45
2022-12-22T02:39:09.229Z,85.40
2022-12-22T02:42:08.322Z,85.47
2022-12-22T02:45:06.819Z,85.47
2022-12-22T02:48:04.749Z,85.37
2022-12-22T02:51:02.060Z,85.41
2022-12-22T02:53:53.788Z,85.39
2022-12-22T02:56:45.194Z,85.26
2022-12-22T02:59:36.836Z,85.26
2022-12-22T03:02:28.380Z,85.15
2022-12-22T03:05:19.858Z,85.19
2022-12-22T03:08:11.730Z,85.18
2022-12-22T03:11:03.373Z,85.14
2022-12-22T03:13:54.723Z,84.95
2022-12-22T03:16:46.272Z,85.12
2022-12-22T03:19:37.714Z,85.06
2022-12-22T03:22:29.544Z,85.11
2022-12-22T03:25:21.077Z,85.12
2022-12-22T03:27:54.961Z,85.22
2022-12-22T03:30:28.398Z,85.03
2022-12-22T03:33:01.890Z,84.95
2022-12-22T03:35:35.625Z,85.19
2022-12-22T03:38:09.181Z,85.34
2022-12-22T03:40:44.501Z,85.22
2022-12-22T03:43:37.401Z,85.17
2022-12-22T03:46:33.445Z,85.18
2022-12-22T03:49:14.625Z,85.15
2022-12-22T03:51:50.418Z,85.01
2022-12-22T03:54:25.888Z,84.83
2022-12-22T03:56:59.465Z,84.73
2022-12-22T03:59:33.549Z,84.89
2022-12-22T04:02:08.156Z,84.76
2022-12-22T04:04:42.103Z,84.66
2022-12-22T04:07:15.503Z,84.51
2022-12-22T04:10:02.758Z,84.44
2022-12-22T04:12:54.113Z,84.48
2022-12-22T04:15:29.790Z,84.62
2022-12-22T04:18:03.853Z,84.63
2022-12-22T04:20:37.872Z,84.61
2022-12-22T04:23:11.607Z,84.67
2022-12-22T04:25:45.527Z,84.60
2022-12-22T04:28:19.337Z,84.59
2022-12-22T04:30:54.133Z,84.58
2022-12-22T04:33:27.691Z,84.56
2022-12-22T04:36:01.345Z,84.56
2022-12-22T04:38:35.333Z,84.52
2022-12-22T04:41:09.588Z,84.49
2022-12-22T04:43:44.265Z,84.47
2022-12-22T04:46:18.261Z,84.57
2022-12-22T04:48:57.690Z,84.56
2022-12-22T04:51:33.986Z,84.46
2022-12-22T04:54:07.759Z,84.59
2022-12-22T04:56:41.410Z,84.65
2022-12-22T04:59:14.912Z,84.61
2022-12-22T05:01:49.265Z,84.61
2022-12-22T05:04:23.982Z,84.55
2022-12-22T05:06:57.785Z,84.53
2022-12-22T05:09:31.580Z,84.66
2022-12-22T05:12:25.726Z,84.63
2022-12-22T05:14:59.523Z,84.79
2022-12-22T05:17:33.290Z,84.78
2022-12-22T05:20:07.802Z,84.75
2022-12-22T05:22:41.706Z,84.75
2022-12-22T05:25:17.510Z,84.50
2022-12-22T05:27:52.768Z,84.56
2022-12-22T05:30:26.821Z,84.39
2022-12-22T05:33:00.434Z,84.22
2022-12-22T05:35:33.944Z,84.23
2022-12-22T05:38:07.455Z,84.05
2022-12-22T05:40:41.190Z,84.09
2022-12-22T05:43:14.704Z,84.22
2022-12-22T05:45:49.532Z,84.20
2022-12-22T05:48:29.492Z,84.08
2022-12-22T05:51:06.946Z,83.98
2022-12-22T05:53:40.987Z,83.99
2022-12-22T05:56:14.494Z,84.06
2022-12-22T05:58:48.148Z,84.16
2022-12-22T06:01:21.709Z,84.28
2022-12-22T06:04:00.065Z,84.21
2022-12-22T06:06:34.141Z,83.97
2022-12-22T06:09:07.973Z,84.02
2022-12-22T06:11:41.516Z,83.96
2022-12-22T06:14:15.026Z,83.74
2022-12-22T06:16:48.576Z,83.68
2022-12-22T06:19:22.661Z,83.64
2022-12-22T06:21:56.058Z,83.48
2022-12-22T06:24:29.964Z,83.41
2022-12-22T06:27:04.132Z,83.33
2022-12-22T06:29:38.148Z,83.52
2022-12-22T06:32:11.561Z,83.55
2022-12-22T06:34:45.492Z,83.58
2022-12-22T06:37:19.609Z,83.69
2022-12-22T06:39:53.388Z,83.71
2022-12-22T06:42:41.350Z,83.74
2022-12-22T06:45:15.485Z,83.89
2022-12-22T06:47:48.993Z,83.79
2022-12-22T06:50:23.049Z,83.76
2022-12-22T06:52:56.646Z,83.71
2022-12-22T06:55:30.267Z,83.74
2022-12-22T06:58:03.896Z,83.82
2022-12-22T07:00:37.648Z,83.78
2022-12-22T07:03:11.196Z,83.79
2022-12-22T07:05:45.271Z,83.71
2022-12-22T07:08:19.360Z,83.82
2022-12-22T07:11:02.250Z,83.84
2022-12-22T07:13:37.258Z,83.91
2022-12-22T07:16:12.342Z,83.80
2022-12-22T07:18:46.788Z,83.65
2022-12-22T07:21:20.837Z,83.70
2022-12-22T07:23:54.293Z,83.54
2022-12-22T07:26:28.479Z,83.67
2022-12-22T07:29:01.839Z,83.87
2022-12-22T07:31:35.936Z,83.82
2022-12-22T07:34:09.800Z,83.71
2022-12-22T07:36:43.741Z,83.75
2022-12-22T07:39:17.602Z,83.81
2022-12-22T07:42:08.649Z,83.71
2022-12-22T07:44:42.797Z,83.64
2022-12-22T07:47:16.745Z,83.58
2022-12-22T07:50:08.027Z,83.33
2022-12-22T07:52:42.227Z,83.21
2022-12-22T07:55:15.938Z,83.31
2022-12-22T07:57:49.915Z,83.20
2022-12-22T08:00:25.763Z,82.95
2022-12-22T08:03:01.507Z,83.11
2022-12-22T08:05:36.183Z,83.35
2022-12-22T08:08:10.713Z,82.94
2022-12-22T08:10:44.444Z,82.48
2022-12-22T08:13:18.602Z,82.27
2022-12-22T08:15:52.611Z,82.26
2022-12-22T08:18:26.708Z,82.34
2022-12-22T08:21:00.130Z,82.38
2022-12-22T08:23:34.244Z,82.45
2022-12-22T08:26:13.779Z,82.31
2022-12-22T08:28:51.813Z,82.27
2022-12-22T08:31:29.021Z,82.50
2022-12-22T08:34:05.058Z,81.82
2022-12-22T08:36:43.396Z,81.66
2022-12-22T08:39:18.621Z,81.29
2022-12-22T08:41:52.833Z,81.31
2022-12-22T08:44:28.246Z,81.40
2022-12-22T08:47:03.011Z,81.12
2022-12-22T08:49:36.687Z,81.22
2022-12-22T08:52:16.006Z,81.48
2022-12-22T08:54:52.219Z,81.79
2022-12-22T08:57:26.169Z,82.36
2022-12-22T09:00:00.171Z,81.96
2022-12-22T09:02:33.793Z,81.33
2022-12-22T09:05:08.920Z,81.08
2022-12-22T09:07:42.793Z,80.91
2022-12-22T09:10:17.515Z,81.10
2022-12-22T09:12:51.753Z,81.22
2022-12-22T09:15:25.374Z,81.39
2022-12-22T09:17:59.427Z,81.25
2022-12-22T09:20:33.355Z,81.46
2022-12-22T09:23:07.030Z,81.39
2022-12-22T09:25:40.936Z,81.21
2022-12-22T09:28:14.476Z,81.05
2022-12-22T09:30:53.202Z,80.63
2022-12-22T09:33:26.715Z,80.70
2022-12-22T09:36:00.545Z,81.32
2022-12-22T09:38:44.049Z,81.01
2022-12-22T09:41:21.162Z,80.60
2022-12-22T09:43:55.093Z,80.45
2022-12-22T09:46:31.341Z,80.72
2022-12-22T09:49:06.719Z,80.50
2022-12-22T09:51:45.383Z,79.88
2022-12-22T09:54:17.981Z,79.86
2022-12-22T09:56:51.896Z,79.71
2022-12-22T09:59:28.330Z,79.71
2022-12-22T10:02:12.784Z,79.25
2022-12-22T10:04:58.019Z,78.20
2022-12-22T10:07:35.885Z,78.51
2022-12-22T10:10:25.564Z,78.86
2022-12-22T10:13:01.863Z,79.18
2022-12-22T10:15:42.438Z,79.47
2022-12-22T10:18:17.937Z,79.63
2022-12-22T10:21:11.536Z,79.18
2022-12-22T10:23:48.492Z,78.88
2022-12-22T10:26:29.621Z,78.64
2022-12-22T10:29:08.290Z,78.61
2022-12-22T10:32:00.355Z,78.90
2022-12-22T10:34:34.187Z,78.61
2022-12-22T10:37:08.754Z,78.47
2022-12-22T10:39:59.460Z,78.56
2022-12-22T10:42:57.860Z,78.66
2022-12-22T10:45:31.846Z,78.94
2022-12-22T10:48:07.531Z,79.09
2022-12-22T10:50:50.344Z,78.98
2022-12-22T10:53:38.717Z,79.15
2022-12-22T10:56:23.510Z,79.18
2022-12-22T10:58:58.551Z,79.44
2022-12-22T11:01:37.067Z,79.71
2022-12-22T11:04:25.304Z,79.62
2022-12-22T11:07:00.452Z,79.71
2022-12-22T11:09:35.273Z,79.67
2022-12-22T11:12:15.287Z,79.52
2022-12-22T11:14:57.602Z,79.30
2022-12-22T11:17:41.049Z,79.31
2022-12-22T11:20:40.096Z,79.33
2022-12-22T11:23:22.977Z,79.32
2022-12-22T11:26:07.601Z,79.15
2022-12-22T11:29:16.574Z,79.47
2022-12-22T11:32:03.812Z,79.04
2022-12-22T11:34:51.452Z,81.13
2022-12-22T11:37:38.562Z,82.04
2022-12-22T11:40:23.370Z,80.57
2022-12-22T11:43:19.698Z,78.81
2022-12-22T11:46:08.084Z,75.66
2022-12-22T11:49:28.952Z,74.99
2022-12-22T11:52:23.340Z,72.73
2022-12-22T11:55:19.551Z,71.40
2022-12-22T11:58:06.648Z,71.74
2022-12-22T12:01:13.636Z,72.77
2022-12-22T12:04:19.095Z,71.98
2022-12-22T12:07:21.950Z,72.35
2022-12-22T12:10:15.185Z,72.94
2022-12-22T12:12:55.592Z,73.32
2022-12-22T12:15:38.400Z,73.69
2022-12-22T12:18:57.359Z,73.35
2022-12-22T12:21:37.687Z,72.97
2022-12-22T12:24:34.939Z,72.87
2022-12-22T12:27:22.105Z,73.07
2022-12-22T12:30:37.104Z,73.38
2022-12-22T12:33:02.676Z,74.31
2022-12-22T12:35:57.543Z,74.72
2022-12-22T12:41:42.437Z,74.48
2022-12-22T12:44:19.730Z,74.19
2022-12-22T12:47:09.815Z,74.48
2022-12-22T12:50:01.995Z,73.81
2022-12-22T12:53:17.514Z,74.02
2022-12-22T12:55:59.877Z,74.43
2022-12-22T12:58:58.442Z,74.68
2022-12-22T13:01:59.755Z,75.10
2022-12-22T13:05:13.395Z,75.47
2022-12-22T13:08:16.053Z,76.06
2022-12-22T13:12:01.257Z,76.25
2022-12-22T13:14:50.822Z,76.66
2022-12-22T13:17:50.159Z,76.88
2022-12-22T13:20:28.928Z,77.19
2022-12-22T13:23:02.429Z,77.88
2022-12-22T13:25:50.569Z,78.09
2022-12-22T13:28:25.740Z,78.32
2022-12-22T13:31:04.544Z,78.44
2022-12-22T13:33:41.668Z,78.91
2022-12-22T13:36:21.314Z,79.20
2022-12-22T13:39:03.727Z,79.18
2022-12-22T13:41:41.311Z,79.30
2022-12-22T13:44:21.597Z,79.61
2022-12-22T13:46:55.519Z,79.67
2022-12-22T13:50:06.545Z,79.86
2022-12-22T13:52:25.345Z,79.83
2022-12-22T13:54:59.632Z,79.83
2022-12-22T13:57:33.366Z,80.02
2022-12-22T14:00:08.112Z,79.99
2022-12-22T14:02:43.423Z,80.19
2022-12-22T14:05:17.942Z,80.41
2022-12-22T14:08:08.785Z,80.44
2022-12-22T14:10:46.307Z,80.45
2022-12-22T14:13:24.111Z,80.58
2022-12-22T14:16:06.403Z,80.48
2022-12-22T14:18:42.149Z,80.65
2022-12-22T14:21:16.265Z,80.72
2022-12-22T14:23:50.703Z,80.65
2022-12-22T14:26:29.973Z,80.52
2022-12-22T14:29:04.307Z,80.52
2022-12-22T14:31:52.687Z,80.40
2022-12-22T14:34:31.810Z,80.36
2022-12-22T14:37:05.737Z,80.45
2022-12-22T14:39:39.554Z,80.40
2022-12-22T14:42:18.960Z,80.24
2022-12-22T14:44:53.654Z,80.17
2022-12-22T14:47:29.024Z,80.34
2022-12-22T14:50:15.814Z,80.41
2022-12-22T14:52:52.384Z,80.48
2022-12-22T14:55:37.468Z,80.58
2022-12-22T14:58:18.259Z,80.58
2022-12-22T15:01:13.157Z,80.44
2022-12-22T15:03:58.767Z,80.27
2022-12-22T15:06:45.046Z,80.32
2022-12-22T15:12:23.748Z,80.25
2022-12-22T15:14:57.383Z,80.21
2022-12-22T15:17:31.416Z,80.28
2022-12-22T15:20:05.133Z,80.22
2022-12-22T15:22:38.757Z,80.31
2022-12-22T15:25:19.777Z,80.59
2022-12-22T15:27:53.909Z,80.56
2022-12-22T15:30:27.748Z,80.76
2022-12-22T15:33:01.604Z,80.83
2022-12-22T15:35:36.816Z,80.63
2022-12-22T15:38:16.238Z,80.44
2022-12-22T15:40:50.292Z,80.51
2022-12-22T15:43:56.382Z,80.54
2022-12-22T15:46:19.454Z,80.64
2022-12-22T15:48:53.465Z,80.54
2022-12-22T15:51:29.615Z,80.59
2022-12-22T15:54:03.373Z,80.69
2022-12-22T15:56:37.497Z,80.50
2022-12-22T15:59:16.993Z,80.47
2022-12-22T16:01:56.582Z,80.49
2022-12-22T16:04:34.705Z,80.55
2022-12-22T16:07:08.810Z,80.48
2022-12-22T16:09:45.836Z,80.47
2022-12-22T16:12:21.241Z,80.45
2022-12-22T16:14:58.116Z,80.46
2022-12-22T16:17:33.113Z,80.51
2022-12-22T16:20:08.104Z,80.57
2022-12-22T16:22:43.258Z,80.65
2022-12-22T16:25:20.915Z,80.87
2022-12-22T16:27:56.523Z,80.96
2022-12-22T16:30:33.112Z,80.96
2022-12-22T16:33:07.110Z,81.09
2022-12-22T16:35:41.399Z,81.07
2022-12-22T16:38:18.873Z,81.05
2022-12-22T16:40:55.112Z,80.89
2022-12-22T16:46:27.556Z,80.92
2022-12-22T16:49:03.347Z,80.69
2022-12-22T16:51:39.235Z,80.82
2022-12-22T16:54:16.372Z,80.62
2022-12-22T16:56:51.989Z,80.71
2022-12-22T16:59:26.349Z,80.80
2022-12-22T17:02:01.197Z,80.88
2022-12-22T17:04:35.800Z,80.89
2022-12-22T17:07:11.332Z,80.96
2022-12-22T17:09:47.887Z,80.82
2022-12-22T17:12:25.024Z,80.92
2022-12-22T17:14:59.639Z,81.12
2022-12-22T17:17:40.103Z,81.37
2022-12-22T17:20:19.166Z,81.38
2022-12-22T17:22:55.697Z,81.49
2022-12-22T17:25:31.524Z,81.56
2022-12-22T17:28:06.002Z,81.79
2022-12-22T17:30:41.208Z,81.90
2022-12-22T17:33:18.124Z,82.02
2022-12-22T17:35:52.137Z,82.07
2022-12-22T17:38:27.575Z,82.23
2022-12-22T17:41:03.574Z,82.34
2022-12-22T17:43:37.260Z,82.32
2022-12-22T17:46:16.630Z,82.22
2022-12-22T17:48:51.365Z,82.54
2022-12-22T17:51:30.167Z,82.67
2022-12-22T17:54:04.212Z,82.60
2022-12-22T17:56:37.963Z,82.65
2022-12-22T17:59:14.555Z,82.54
2022-12-22T18:01:48.443Z,82.58
2022-12-22T18:04:22.635Z,82.61
2022-12-22T18:06:56.293Z,82.56
2022-12-22T18:09:30.425Z,82.57
2022-12-22T18:12:04.863Z,82.54
2022-12-22T18:14:38.419Z,82.41
2022-12-22T18:17:29.859Z,82.42
2022-12-22T18:20:10.376Z,82.05
2022-12-22T18:22:45.148Z,81.97
2022-12-22T18:25:26.138Z,81.94
2022-12-22T18:28:00.282Z,81.83
2022-12-22T18:30:34.477Z,81.78
2022-12-22T18:33:08.595Z,81.81
2022-12-22T18:35:44.256Z,81.87
2022-12-22T18:38:28.791Z,81.84
2022-12-22T18:41:03.478Z,81.95
2022-12-22T18:43:37.907Z,81.79
2022-12-22T18:46:14.222Z,81.81
2022-12-22T18:48:48.933Z,81.67
2022-12-22T18:51:25.638Z,81.59
2022-12-22T18:53:59.621Z,81.48
2022-12-22T18:56:36.672Z,81.34
2022-12-22T18:59:23.180Z,81.47
2022-12-22T19:02:03.713Z,81.44
2022-12-22T19:04:37.579Z,81.43
2022-12-22T19:07:17.177Z,81.44
2022-12-22T19:09:51.841Z,81.45
2022-12-22T19:12:30.350Z,81.34
2022-12-22T19:15:08.658Z,81.33
2022-12-22T19:17:43.431Z,81.23
2022-12-22T19:20:21.845Z,81.10
2022-12-22T19:22:54.545Z,81.19
2022-12-22T19:25:32.046Z,81.08
2022-12-22T19:28:10.747Z,81.00
2022-12-22T19:30:45.133Z,80.89
2022-12-22T19:33:24.778Z,81.00
2022-12-22T19:36:02.066Z,80.94
2022-12-22T19:38:38.401Z,81.02
2022-12-22T19:41:36.534Z,80.93
2022-12-22T19:44:24.520Z,80.84
2022-12-22T19:46:59.702Z,80.79
2022-12-22T19:49:35.705Z,80.69
2022-12-22T19:52:11.857Z,80.62
2022-12-22T19:54:47.305Z,80.67
2022-12-22T19:57:24.456Z,80.68
2022-12-22T19:59:58.157Z,80.55
2022-12-22T20:02:35.302Z,80.48
2022-12-22T20:05:30.918Z,80.50
2022-12-22T20:08:05.873Z,80.47
2022-12-22T20:10:43.068Z,80.55
2022-12-22T20:13:22.002Z,80.67
2022-12-22T20:15:55.705Z,80.58
2022-12-22T20:18:30.963Z,80.58
2022-12-22T20:21:10.366Z,80.59
2022-12-22T20:23:46.234Z,80.58
2022-12-22T20:26:25.306Z,80.63
2022-12-22T20:29:00.964Z,80.60
2022-12-22T20:31:35.130Z,80.60
2022-12-22T20:34:11.359Z,80.54
2022-12-22T20:36:46.348Z,80.54
2022-12-22T20:39:20.908Z,80.69
2022-12-22T20:41:58.429Z,80.66
2022-12-22T20:44:34.717Z,80.54
2022-12-22T20:47:12.885Z,80.45
2022-12-22T20:49:50.333Z,80.59
2022-12-22T20:52:25.147Z,80.46
2022-12-22T20:54:59.750Z,80.48
2022-12-22T20:57:33.681Z,80.46
2022-12-22T21:00:09.179Z,80.28
2022-12-22T21:02:44.213Z,80.25
2022-12-22T21:05:19.159Z,80.19
2022-12-22T21:07:52.949Z,80.21
2022-12-22T21:10:27.786Z,80.12
2022-12-22T21:13:02.420Z,80.21
2022-12-22T21:15:36.249Z,80.22
2022-12-22T21:18:17.871Z,80.15
2022-12-22T21:20:53.427Z,80.27
2022-12-22T21:23:27.067Z,80.29
2022-12-22T21:26:01.146Z,80.31
2022-12-22T21:28:38.437Z,80.30
2022-12-22T21:31:12.219Z,80.44
2022-12-22T21:33:47.472Z,80.49
2022-12-22T21:36:26.213Z,80.55
2022-12-22T21:38:59.896Z,80.51
2022-12-22T21:41:51.680Z,80.55
2022-12-22T21:44:25.413Z,80.64
2022-12-22T21:47:00.197Z,80.76
2022-12-22T21:49:35.469Z,80.74
2022-12-22T21:52:09.911Z,81.07
2022-12-22T21:54:43.797Z,81.37
2022-12-22T21:57:18.784Z,81.50
2022-12-22T21:59:52.369Z,81.77
2022-12-22T22:02:26.227Z,82.01
2022-12-22T22:04:59.883Z,82.40
2022-12-22T22:07:33.977Z,82.66
2022-12-22T22:10:09.196Z,82.62
2022-12-22T22:12:42.686Z,82.83
2022-12-22T22:15:17.784Z,82.91
2022-12-22T22:17:52.049Z,82.86
2022-12-22T22:20:28.102Z,82.87
2022-12-22T22:23:02.398Z,83.15
2022-12-22T22:25:36.392Z,83.17
2022-12-22T22:28:11.276Z,83.25
2022-12-22T22:30:45.335Z,83.29
2022-12-22T22:33:19.681Z,83.58
2022-12-22T22:35:54.364Z,83.84
2022-12-22T22:38:27.891Z,84.10
2022-12-22T22:41:01.897Z,84.39
2022-12-22T22:43:35.809Z,84.17
2022-12-22T22:46:10.093Z,84.17
2022-12-22T22:48:44.253Z,84.37
2022-12-22T22:51:17.603Z,84.29
2022-12-22T22:53:51.455Z,84.51
2022-12-22T22:56:25.086Z,84.63
2022-12-22T22:59:00.029Z,84.80
2022-12-22T23:01:33.894Z,85.14
2022-12-22T23:04:08.496Z,85.05
2022-12-22T23:06:43.691Z,85.07
2022-12-22T23:09:17.333Z,85.20
2022-12-22T23:11:52.202Z,85.23
2022-12-22T23:14:26.493Z,85.27
2022-12-22T23:17:00.221Z,85.42
2022-12-22T23:19:34.289Z,85.30
2022-12-22T23:22:08.247Z,85.20
2022-12-22T23:24:42.040Z,85.27
2022-12-22T23:27:16.228Z,85.24
2022-12-22T23:29:50.033Z,85.54
2022-12-22T23:32:23.930Z,85.53
2022-12-22T23:34:57.766Z,85.48
2022-12-22T23:37:31.678Z,85.44
2022-12-22T23:43:00.202Z,85.47
2022-12-22T23:45:35.165Z,85.53
2022-12-22T23:48:10.493Z,85.58
2022-12-22T23:50:46.948Z,85.67
2022-12-22T23:53:21.538Z,85.63
2022-12-22T23:55:55.885Z,85.72
2022-12-22T23:58:29.564Z,85.80
